Time;durP1;ratioP1;P1;durP2;ratioP2;P2;SDS_P1;SDS_P2;PMS_P1;PMS_P2;Temp;Humidity;BMP_temperature;BMP_pressure;BME280_temperature;BME280_humidity;BME280_pressure;Samples;Min_cycle;Max_cycle;Signal;HPM_P1;HPM_P2
2024/01/30 00:04:30;;;;;;;27.30;14.10;;;;;;;0.28;81.77;100619.80;226261;1274;22558;-80
2024/01/30 00:09:32;;;;;;;28.20;15.80;;;;;;;0.27;81.51;100620.33;226400;1274;22594;-80
2024/01/30 00:14:34;;;;;;;24.30;14.70;;;;;;;0.24;81.64;100620.17;226238;1274;22540;-80
2024/01/30 00:19:36;;;;;;;27.00;15.80;;;;;;;0.19;81.75;100612.27;226241;1274;22548;-79
2024/01/30 00:24:39;;;;;;;32.60;16.70;;;;;;;0.14;81.72;100613.91;226452;1271;22641;-79
2024/01/30 00:29:41;;;;;;;28.70;16.10;;;;;;;0.10;81.70;100611.17;226405;1273;22536;-80
2024/01/30 00:34:43;;;;;;;26.80;14.20;;;;;;;0.07;81.66;100611.67;226455;1272;22562;-80
2024/01/30 00:39:46;;;;;;;24.90;14.30;;;;;;;0.06;81.69;100601.69;226451;1265;23153;-78
2024/01/30 00:44:48;;;;;;;26.70;14.90;;;;;;;0.06;81.77;100600.83;226439;1274;22660;-79
2024/01/30 00:49:50;;;;;;;26.00;14.30;;;;;;;0.04;81.89;100596.03;226255;1274;24701;-79
2024/01/30 00:54:52;;;;;;;24.30;13.60;;;;;;;0.03;81.88;100596.27;226362;1270;22572;-79
2024/01/30 00:59:55;;;;;;;26.40;15.40;;;;;;;-0.01;81.89;100599.61;226233;1274;22654;-79
2024/01/30 01:04:57;;;;;;;27.30;15.40;;;;;;;-0.04;81.82;100596.29;226415;1272;22831;-79
2024/01/30 01:09:59;;;;;;;26.00;15.30;;;;;;;-0.07;81.93;100598.52;226278;1274;22623;-78
2024/01/30 01:15:02;;;;;;;27.20;14.80;;;;;;;-0.11;81.78;100594.55;226205;1274;22559;-79
2024/01/30 01:20:06;;;;;;;24.30;14.20;;;;;;;-0.16;82.08;100594.62;226445;1274;26054;-79
2024/01/30 01:25:10;;;;;;;21.20;13.70;;;;;;;-0.19;82.06;100584.05;226623;1272;25444;-79
2024/01/30 01:30:18;;;;;;;25.60;14.30;;;;;;;-0.21;82.08;100580.50;226411;1273;22695;-79
2024/01/30 01:35:24;;;;;;;23.30;15.00;;;;;;;-0.22;82.07;100579.52;226389;1274;22552;-78
2024/01/30 01:40:27;;;;;;;20.50;13.80;;;;;;;-0.25;82.35;100575.53;226480;1274;22633;-80
2024/01/30 01:45:29;;;;;;;24.50;14.10;;;;;;;-0.28;82.28;100569.60;226472;1267;22553;-80
2024/01/30 01:50:31;;;;;;;23.10;13.10;;;;;;;-0.28;82.31;100574.08;226280;1274;22540;-79
2024/01/30 01:55:35;;;;;;;23.10;14.10;;;;;;;-0.26;82.44;100567.40;226612;1274;22698;-79
2024/01/30 02:00:40;;;;;;;24.40;14.10;;;;;;;-0.24;82.32;100563.66;226383;1272;22551;-78
2024/01/30 02:05:43;;;;;;;22.90;11.60;;;;;;;-0.23;82.45;100565.39;226366;1272;22558;-78
2024/01/30 02:10:45;;;;;;;25.00;14.20;;;;;;;-0.21;82.64;100556.63;226207;1273;22537;-78
2024/01/30 02:15:51;;;;;;;20.20;12.50;;;;;;;-0.21;82.49;100556.45;226203;1274;25296;-78
2024/01/30 02:20:56;;;;;;;19.70;12.80;;;;;;;-0.24;82.57;100565.75;226419;1270;22539;-79
2024/01/30 02:25:58;;;;;;;22.20;13.60;;;;;;;-0.27;82.51;100562.44;226260;1274;24202;-78
2024/01/30 02:31:00;;;;;;;20.70;13.10;;;;;;;-0.30;82.62;100553.44;226382;1274;22555;-79
2024/01/30 02:36:02;;;;;;;19.20;12.70;;;;;;;-0.32;82.28;100551.64;226527;1271;25452;-79
2024/01/30 02:41:05;;;;;;;19.20;11.80;;;;;;;-0.30;82.66;100547.04;226306;1274;22735;-80
2024/01/30 02:46:08;;;;;;;18.90;11.20;;;;;;;-0.27;82.83;100553.78;226424;1251;24234;-80
2024/01/30 02:51:10;;;;;;;16.70;10.90;;;;;;;-0.23;82.65;100551.36;226481;1272;23200;-80
2024/01/30 02:56:13;;;;;;;15.00;11.00;;;;;;;-0.20;82.82;100547.58;226527;1274;22595;-78
2024/01/30 03:01:15;;;;;;;17.40;10.90;;;;;;;-0.17;82.59;100546.71;226301;1266;22667;-79
2024/01/30 03:06:20;;;;;;;16.90;11.40;;;;;;;-0.16;82.58;100545.28;226437;1273;26472;-79
2024/01/30 03:11:22;;;;;;;20.00;11.50;;;;;;;-0.18;82.32;100547.13;226251;1274;22549;-80
2024/01/30 03:16:24;;;;;;;18.50;11.20;;;;;;;-0.22;82.37;100546.45;226173;1274;22577;-79
2024/01/30 03:21:26;;;;;;;18.40;10.80;;;;;;;-0.23;82.75;100546.18;226436;1270;25389;-79
2024/01/30 03:26:28;;;;;;;18.10;11.50;;;;;;;-0.23;82.42;100548.21;226162;1273;22543;-79
2024/01/30 03:31:30;;;;;;;17.70;11.20;;;;;;;-0.22;82.41;100550.45;226286;1274;22571;-79
2024/01/30 03:36:34;;;;;;;18.30;11.10;;;;;;;-0.23;82.38;100549.27;226447;1274;24400;-79
2024/01/30 03:41:36;;;;;;;19.00;11.20;;;;;;;-0.26;82.66;100544.55;226459;1274;22610;-79
2024/01/30 03:46:39;;;;;;;19.20;11.30;;;;;;;-0.24;82.53;100537.57;226422;1251;22658;-79
2024/01/30 03:51:41;;;;;;;17.90;11.90;;;;;;;-0.22;82.39;100544.23;226369;1272;22698;-79
2024/01/30 03:56:43;;;;;;;18.10;10.80;;;;;;;-0.24;82.25;100545.67;226254;1274;22563;-79
2024/01/30 04:01:46;;;;;;;18.70;11.00;;;;;;;-0.27;82.31;100544.45;226406;1266;22550;-79
2024/01/30 04:06:49;;;;;;;19.30;10.90;;;;;;;-0.31;82.41;100547.09;226410;1274;22555;-80
2024/01/30 04:11:51;;;;;;;16.50;11.30;;;;;;;-0.34;82.43;100544.14;226348;1272;22571;-79
2024/01/30 04:16:53;;;;;;;18.60;10.90;;;;;;;-0.37;82.52;100533.67;226392;1274;22610;-79
2024/01/30 04:21:55;;;;;;;19.30;10.50;;;;;;;-0.33;82.51;100533.69;226518;1274;22626;-79
2024/01/30 04:26:58;;;;;;;17.10;11.00;;;;;;;-0.30;82.40;100529.05;226466;1273;22609;-79
2024/01/30 04:32:00;;;;;;;18.10;10.50;;;;;;;-0.31;82.39;100534.77;226490;1274;22556;-80
2024/01/30 04:37:02;;;;;;;17.60;10.90;;;;;;;-0.31;81.96;100532.05;226288;1270;24405;-80
2024/01/30 04:42:05;;;;;;;19.30;11.70;;;;;;;-0.34;82.24;100535.96;226496;1274;22614;-79
2024/01/30 04:47:11;;;;;;;19.40;11.60;;;;;;;-0.36;82.04;100539.15;226490;1274;22615;-79
2024/01/30 04:52:14;;;;;;;18.90;11.20;;;;;;;-0.35;82.28;100536.71;226265;1274;22567;-78
2024/01/30 04:57:16;;;;;;;17.10;10.40;;;;;;;-0.35;82.11;100540.55;226411;1274;22630;-79
2024/01/30 05:02:18;;;;;;;19.00;11.20;;;;;;;-0.37;82.16;100538.34;226354;1274;22592;-79
2024/01/30 05:07:20;;;;;;;20.70;11.60;;;;;;;-0.38;81.98;100542.55;226325;1274;22573;-79
2024/01/30 05:12:22;;;;;;;19.10;11.70;;;;;;;-0.39;81.79;100542.63;226363;1274;23059;-79
2024/01/30 05:17:25;;;;;;;15.60;10.80;;;;;;;-0.42;82.09;100546.58;226272;1273;22548;-78
2024/01/30 05:22:27;;;;;;;19.80;11.40;;;;;;;-0.46;81.96;100550.73;226449;1274;22543;-79
2024/01/30 05:27:29;;;;;;;19.20;11.10;;;;;;;-0.49;81.74;100549.50;226476;1270;25421;-79
2024/01/30 05:32:31;;;;;;;17.90;11.70;;;;;;;-0.53;81.95;100548.84;226202;1273;24317;-79
2024/01/30 05:37:33;;;;;;;20.60;11.90;;;;;;;-0.58;81.87;100550.10;226468;1267;22622;-79
2024/01/30 05:42:35;;;;;;;20.60;12.70;;;;;;;-0.62;82.07;100548.59;226331;1272;23076;-79
2024/01/30 05:47:39;;;;;;;21.00;13.00;;;;;;;-0.66;82.07;100546.73;226501;1267;25938;-79
2024/01/30 05:52:41;;;;;;;21.80;13.90;;;;;;;-0.74;81.78;100547.42;226317;1274;22602;-78
2024/01/30 05:57:43;;;;;;;24.50;14.20;;;;;;;-0.80;82.12;100547.55;226476;1270;22649;-79
2024/01/30 06:02:45;;;;;;;24.70;14.40;;;;;;;-0.86;82.09;100550.59;226468;1268;22588;-79
2024/01/30 06:07:47;;;;;;;26.20;14.70;;;;;;;-0.88;82.18;100551.70;226364;1274;24247;-80
2024/01/30 06:12:49;;;;;;;30.50;17.50;;;;;;;-0.91;82.13;100545.33;226390;1273;25562;-80
2024/01/30 06:17:51;;;;;;;29.90;16.30;;;;;;;-0.93;82.55;100543.32;226479;1270;24328;-78
2024/01/30 06:22:53;;;;;;;33.00;17.00;;;;;;;-0.94;82.44;100546.30;226323;1270;22547;-79
2024/01/30 06:27:55;;;;;;;31.50;16.00;;;;;;;-0.96;82.46;100546.78;226175;1274;22664;-78
2024/01/30 06:32:57;;;;;;;30.60;16.00;;;;;;;-0.96;82.22;100546.06;226419;1270;24469;-78
2024/01/30 06:38:00;;;;;;;27.90;16.00;;;;;;;-0.95;82.48;100549.12;226249;1274;25250;-79
2024/01/30 06:43:02;;;;;;;31.80;16.70;;;;;;;-0.95;82.38;100547.06;226409;1270;22558;-78
2024/01/30 06:48:05;;;;;;;26.90;16.10;;;;;;;-0.94;82.18;100545.97;226311;1267;22615;-79
2024/01/30 06:53:07;;;;;;;33.50;18.40;;;;;;;-0.92;82.32;100548.31;226110;1261;24482;-85
2024/01/30 06:58:09;;;;;;;28.80;16.70;;;;;;;-0.89;82.69;100549.70;226266;1253;22545;-78
2024/01/30 07:03:12;;;;;;;26.70;15.70;;;;;;;-0.83;82.73;100550.27;226365;1251;22670;-79
2024/01/30 07:08:17;;;;;;;22.60;14.10;;;;;;;-0.75;82.48;100556.99;226052;1251;25092;-81
2024/01/30 07:13:20;;;;;;;24.00;13.80;;;;;;;-0.63;82.37;100557.45;225937;1254;22707;-80
2024/01/30 07:18:22;;;;;;;29.10;16.20;;;;;;;-0.47;82.95;100560.12;225934;1251;22648;-79
2024/01/30 07:23:24;;;;;;;24.60;13.90;;;;;;;-0.28;82.29;100563.39;225853;1259;22715;-79
2024/01/30 07:28:26;;;;;;;20.80;11.70;;;;;;;-0.12;82.67;100564.30;225994;1254;22603;-81
2024/01/30 07:33:28;;;;;;;20.70;12.40;;;;;;;0.10;82.59;100559.17;225961;1274;25294;-80
2024/01/30 07:38:33;;;;;;;23.60;11.40;;;;;;;0.58;82.79;100558.08;225756;1267;22542;-81
2024/01/30 07:43:35;;;;;;;23.70;11.70;;;;;;;1.03;82.28;100557.18;225767;1270;22545;-80
2024/01/30 07:48:37;;;;;;;22.20;11.00;;;;;;;1.28;81.30;100552.69;225809;1251;22549;-80
2024/01/30 07:53:39;;;;;;;23.20;11.90;;;;;;;1.49;80.93;100552.40;226012;1273;24204;-80
2024/01/30 07:58:42;;;;;;;25.80;15.50;;;;;;;1.67;80.38;100552.03;226046;1260;22539;-81
2024/01/30 08:03:45;;;;;;;20.00;11.40;;;;;;;1.86;80.17;100555.65;226068;1256;25438;-78
2024/01/30 08:08:47;;;;;;;19.30;11.40;;;;;;;2.03;79.82;100557.41;226091;1252;22558;-78
2024/01/30 08:13:49;;;;;;;19.50;10.90;;;;;;;2.49;80.54;100556.40;225957;1267;22703;-79
2024/01/30 08:18:53;;;;;;;14.40;9.40;;;;;;;2.87;79.60;100557.70;225813;1267;22558;-78
2024/01/30 08:23:55;;;;;;;11.90;8.50;;;;;;;2.97;78.50;100557.41;226005;1267;22564;-80
2024/01/30 08:28:57;;;;;;;15.20;8.40;;;;;;;3.07;78.27;100559.39;225923;1254;22566;-79
2024/01/30 08:33:59;;;;;;;13.80;9.00;;;;;;;3.17;77.71;100558.54;225869;1265;22555;-80
2024/01/30 08:39:01;;;;;;;14.80;8.90;;;;;;;3.29;77.44;100557.48;226051;1267;22559;-80
2024/01/30 08:44:07;;;;;;;12.50;7.30;;;;;;;3.40;76.84;100556.56;225922;1266;178601;-79
2024/01/30 08:49:09;;;;;;;14.40;8.10;;;;;;;3.51;76.64;100556.17;225771;1267;22550;-79
2024/01/30 08:54:11;;;;;;;18.70;9.10;;;;;;;3.63;76.32;100556.97;225776;1267;22544;-78
2024/01/30 08:59:13;;;;;;;14.50;8.40;;;;;;;3.75;75.51;100550.11;226090;1264;22547;-80
2024/01/30 09:04:16;;;;;;;12.80;7.60;;;;;;;3.84;74.97;100549.45;226364;1261;25283;-79
2024/01/30 09:09:19;;;;;;;13.20;7.50;;;;;;;3.95;74.18;100552.78;226300;1252;22605;-79
2024/01/30 09:14:21;;;;;;;13.20;8.60;;;;;;;4.05;74.11;100553.64;226620;1254;22570;-78
2024/01/30 09:19:22;;;;;;;15.40;8.40;;;;;;;4.15;73.86;100546.51;226253;1266;22579;-80
2024/01/30 09:24:27;;;;;;;12.60;8.20;;;;;;;4.29;74.05;100550.98;226537;1263;22548;-79
2024/01/30 09:29:29;;;;;;;13.10;8.40;;;;;;;4.40;73.04;100547.12;226936;1274;24604;-79
2024/01/30 09:34:31;;;;;;;15.80;8.60;;;;;;;4.48;72.53;100546.16;226508;1274;22585;-80
2024/01/30 09:39:33;;;;;;;14.40;8.10;;;;;;;4.58;72.30;100541.15;225988;1268;22572;-80
2024/01/30 09:44:38;;;;;;;14.00;8.20;;;;;;;4.69;72.49;100540.89;226299;1256;22664;-80
2024/01/30 09:49:43;;;;;;;13.30;8.10;;;;;;;4.78;71.87;100539.22;226517;1268;22563;-80
2024/01/30 09:54:45;;;;;;;15.20;8.60;;;;;;;4.88;71.88;100544.40;226565;1267;22661;-80
2024/01/30 09:59:48;;;;;;;16.70;9.00;;;;;;;5.00;71.45;100540.99;226413;1274;22655;-80
2024/01/30 10:04:51;;;;;;;12.70;8.40;;;;;;;5.09;71.30;100537.84;226319;1270;22543;-80
2024/01/30 10:09:55;;;;;;;13.80;9.00;;;;;;;5.20;70.85;100531.27;226870;1270;22573;-80
2024/01/30 10:14:57;;;;;;;15.20;8.40;;;;;;;5.31;70.81;100525.80;226555;1267;22542;-80
2024/01/30 10:20:00;;;;;;;14.90;9.00;;;;;;;5.38;70.73;100518.77;226370;1251;25060;-79
2024/01/30 10:25:04;;;;;;;15.60;8.10;;;;;;;5.50;70.31;100513.04;226145;1251;22672;-79
2024/01/30 10:30:08;;;;;;;12.10;8.10;;;;;;;5.57;70.22;100511.48;225197;1267;26335;-80
2024/01/30 10:35:10;;;;;;;14.70;9.10;;;;;;;5.70;70.45;100507.02;225507;1255;22547;-81
2024/01/30 10:40:14;;;;;;;16.60;8.10;;;;;;;5.84;69.92;100499.49;225217;1257;22598;-79
2024/01/30 10:45:16;;;;;;;14.50;8.40;;;;;;;5.97;69.99;100493.56;225451;1264;23241;-78
2024/01/30 10:50:19;;;;;;;12.30;7.70;;;;;;;6.09;69.64;100488.36;225366;1271;22563;-78
2024/01/30 10:55:23;;;;;;;12.90;8.10;;;;;;;6.18;69.01;100488.83;225531;1273;22578;-80
2024/01/30 11:00:26;;;;;;;12.80;8.30;;;;;;;6.25;69.21;100484.66;225470;1262;22575;-81
2024/01/30 11:05:29;;;;;;;13.40;8.20;;;;;;;6.34;68.89;100476.75;225651;1253;22572;-79
2024/01/30 11:10:44;;;;;;;13.70;8.40;;;;;;;6.43;68.06;100465.90;225553;1264;22559;-78
2024/01/30 11:15:48;;;;;;;11.20;7.60;;;;;;;6.49;68.10;100469.94;225503;1251;22640;-77
2024/01/30 11:20:51;;;;;;;13.10;8.10;;;;;;;6.57;67.57;100464.29;225507;1268;22557;-77
2024/01/30 11:25:54;;;;;;;12.10;8.40;;;;;;;6.61;66.95;100461.67;225422;1268;22648;-80
2024/01/30 11:31:08;;;;;;;11.70;7.10;;;;;;;6.65;67.00;100455.72;225425;1267;22696;-81
2024/01/30 11:36:13;;;;;;;12.10;7.80;;;;;;;6.73;66.85;100451.09;225626;1267;22552;-82
2024/01/30 11:41:16;;;;;;;14.30;8.50;;;;;;;6.78;66.36;100442.80;225389;1255;22961;-80
2024/01/30 11:46:20;;;;;;;12.20;7.20;;;;;;;6.82;65.88;100438.96;225578;1251;24390;-80
2024/01/30 11:51:22;;;;;;;11.80;8.60;;;;;;;6.84;65.71;100434.74;225490;1266;25881;-81
2024/01/30 11:56:26;;;;;;;13.50;7.40;;;;;;;6.88;65.80;100430.61;225433;1268;22559;-77
2024/01/30 12:01:28;;;;;;;11.10;7.40;;;;;;;6.93;65.72;100422.66;225524;1268;22680;-81
2024/01/30 12:06:34;;;;;;;10.80;7.40;;;;;;;7.03;66.06;100419.94;225513;1268;22541;-78
2024/01/30 12:11:49;;;;;;;10.90;7.00;;;;;;;7.08;65.52;100415.80;225318;1267;22602;-78
2024/01/30 12:16:52;;;;;;;10.80;7.70;;;;;;;7.16;65.80;100411.11;225416;1253;22544;-80
2024/01/30 12:22:00;;;;;;;11.40;7.90;;;;;;;7.18;65.09;100398.71;225361;1253;22554;-78
2024/01/30 12:27:02;;;;;;;11.50;6.60;;;;;;;7.19;64.85;100390.40;225364;1268;22661;-78
2024/01/30 12:32:05;;;;;;;10.10;6.90;;;;;;;7.21;64.32;100378.87;225547;1267;22972;-79
2024/01/30 12:37:08;;;;;;;10.60;7.50;;;;;;;7.26;64.77;100375.04;225520;1267;22654;-78
2024/01/30 12:42:10;;;;;;;10.70;7.00;;;;;;;7.33;65.31;100371.70;225536;1251;22573;-80
2024/01/30 12:47:12;;;;;;;12.00;8.30;;;;;;;7.39;65.03;100362.27;225308;1266;24601;-79
2024/01/30 12:52:16;;;;;;;11.10;7.30;;;;;;;7.42;65.08;100362.66;225561;1256;22571;-78
2024/01/30 12:57:18;;;;;;;11.00;7.30;;;;;;;7.47;64.96;100357.39;225507;1261;22588;-78
2024/01/30 13:02:22;;;;;;;12.00;7.40;;;;;;;7.48;64.87;100355.94;225604;1262;25301;-81
2024/01/30 13:07:24;;;;;;;12.60;7.70;;;;;;;7.46;64.80;100362.52;225426;1274;22568;-81
2024/01/30 13:12:27;;;;;;;10.30;7.50;;;;;;;7.44;64.30;100363.05;225608;1274;22571;-81
2024/01/30 13:17:29;;;;;;;11.70;7.10;;;;;;;7.39;64.30;100363.09;225656;1267;22595;-83
2024/01/30 13:22:31;;;;;;;10.90;6.40;;;;;;;7.35;64.15;100362.95;225739;1268;22651;-84
2024/01/30 13:27:33;;;;;;;13.10;7.80;;;;;;;7.29;63.96;100358.83;225354;1267;23445;-80
2024/01/30 13:32:35;;;;;;;12.60;7.80;;;;;;;7.26;64.54;100359.86;225331;1262;22544;-82
2024/01/30 13:37:38;;;;;;;10.10;7.30;;;;;;;7.21;64.14;100357.82;225397;1270;25331;-82
2024/01/30 13:42:40;;;;;;;10.40;7.40;;;;;;;7.19;64.51;100356.41;225354;1268;22541;-81
2024/01/30 13:47:42;;;;;;;12.30;8.00;;;;;;;7.15;64.98;100356.68;225491;1256;23074;-78
2024/01/30 13:52:44;;;;;;;11.30;7.80;;;;;;;7.13;64.69;100349.59;225714;1253;22591;-78
2024/01/30 13:57:47;;;;;;;11.70;7.80;;;;;;;7.09;65.26;100344.93;225670;1255;22550;-76
2024/01/30 14:02:54;;;;;;;12.20;7.90;;;;;;;7.06;65.36;100341.67;225441;1268;23051;-76
2024/01/30 14:07:58;;;;;;;12.50;7.90;;;;;;;7.01;65.40;100345.27;225476;1271;23380;-76
2024/01/30 14:13:00;;;;;;;12.20;8.70;;;;;;;6.96;64.96;100345.69;227667;1251;22558;-76
2024/01/30 14:18:02;;;;;;;13.30;8.10;;;;;;;6.90;64.73;100345.33;225763;1266;22562;-80
2024/01/30 14:23:04;;;;;;;14.00;7.90;;;;;;;6.82;64.86;100344.89;225687;1268;22688;-80
2024/01/30 14:28:06;;;;;;;12.50;8.00;;;;;;;6.73;65.26;100347.05;225960;1264;23080;-79
2024/01/30 14:33:09;;;;;;;14.60;8.10;;;;;;;6.64;65.19;100350.58;225685;1267;22541;-82
2024/01/30 14:38:11;;;;;;;14.20;8.10;;;;;;;6.53;64.97;100345.52;225744;1266;22586;-83
2024/01/30 14:43:13;;;;;;;14.90;8.90;;;;;;;6.42;65.32;100340.10;225905;1258;24265;-80
2024/01/30 14:48:15;;;;;;;14.90;9.00;;;;;;;6.30;65.19;100334.94;225734;1259;23253;-81
2024/01/30 14:53:17;;;;;;;13.80;8.60;;;;;;;6.19;65.14;100336.00;225613;1268;25412;-81
2024/01/30 14:58:20;;;;;;;16.00;9.40;;;;;;;6.06;65.53;100333.20;225793;1270;24230;-80
2024/01/30 15:03:22;;;;;;;17.50;9.90;;;;;;;5.93;65.77;100331.99;225762;1274;22927;-81
2024/01/30 15:08:25;;;;;;;16.20;9.70;;;;;;;5.78;66.04;100333.14;225991;1271;22547;-82
2024/01/30 15:13:28;;;;;;;16.10;9.40;;;;;;;5.62;66.17;100332.58;225809;1273;22662;-80
2024/01/30 15:18:30;;;;;;;14.40;8.50;;;;;;;5.47;66.21;100330.33;226115;1266;25265;-80
2024/01/30 15:23:32;;;;;;;17.60;10.20;;;;;;;5.29;66.46;100333.76;226199;1274;22587;-80
2024/01/30 15:28:36;;;;;;;17.50;9.90;;;;;;;5.12;66.93;100335.40;226210;1274;25378;-80
2024/01/30 15:33:38;;;;;;;14.40;8.50;;;;;;;4.96;67.26;100334.30;226729;1272;22550;-81
2024/01/30 15:38:41;;;;;;;11.80;7.20;;;;;;;4.84;67.43;100335.77;226461;1274;22529;-80
2024/01/30 15:43:43;;;;;;;12.20;7.40;;;;;;;4.73;67.20;100339.53;226450;1271;24220;-80
2024/01/30 15:48:47;;;;;;;13.70;8.30;;;;;;;4.63;67.64;100341.84;226314;1273;24237;-81
2024/01/30 15:53:50;;;;;;;11.70;7.40;;;;;;;4.53;67.69;100346.60;226404;1268;22542;-81
2024/01/30 15:58:52;;;;;;;11.00;6.70;;;;;;;4.44;67.89;100350.58;226471;1271;22540;-81
2024/01/30 16:03:54;;;;;;;13.90;8.00;;;;;;;4.32;68.35;100349.02;226398;1274;22542;-81
2024/01/30 16:08:56;;;;;;;13.10;7.40;;;;;;;4.20;68.56;100347.88;226362;1274;25492;-80
2024/01/30 16:13:58;;;;;;;12.50;8.00;;;;;;;4.12;68.64;100342.41;226464;1274;23142;-81
2024/01/30 16:19:00;;;;;;;12.70;8.00;;;;;;;4.03;68.86;100340.10;226426;1274;22595;-81
2024/01/30 16:24:02;;;;;;;13.20;7.50;;;;;;;3.94;68.95;100342.79;226513;1271;22562;-80
2024/01/30 16:29:04;;;;;;;14.50;7.70;;;;;;;3.87;68.88;100337.19;226501;1274;22547;-81
2024/01/30 16:34:06;;;;;;;11.30;7.10;;;;;;;3.81;68.83;100337.06;226460;1274;22547;-80
2024/01/30 16:39:08;;;;;;;12.00;7.40;;;;;;;3.79;69.01;100336.91;226516;1271;22543;-80
2024/01/30 16:44:10;;;;;;;11.80;6.50;;;;;;;3.76;69.18;100336.75;226428;1274;24372;-81
2024/01/30 16:49:12;;;;;;;10.50;6.40;;;;;;;3.72;68.99;100337.85;226173;1271;22543;-79
2024/01/30 16:54:15;;;;;;;11.50;6.60;;;;;;;3.69;68.89;100332.52;226532;1271;24299;-81
2024/01/30 16:59:18;;;;;;;12.50;7.40;;;;;;;3.68;68.91;100335.23;226452;1274;22532;-80
2024/01/30 17:04:21;;;;;;;11.80;6.90;;;;;;;3.66;68.78;100332.58;226376;1271;22537;-81
2024/01/30 17:09:24;;;;;;;8.30;5.20;;;;;;;3.63;68.49;100326.65;226474;1266;22581;-80
2024/01/30 17:14:28;;;;;;;10.00;6.00;;;;;;;3.64;68.56;100329.40;226232;1274;22549;-81
2024/01/30 17:19:30;;;;;;;9.40;5.00;;;;;;;3.65;68.52;100325.51;226433;1271;25253;-81
2024/01/30 17:24:32;;;;;;;11.00;5.90;;;;;;;3.63;68.23;100326.46;226421;1271;22552;-81
2024/01/30 17:29:50;;;;;;;11.20;5.80;;;;;;;3.63;67.93;100329.48;226587;1271;22688;-80
2024/01/30 17:34:52;;;;;;;8.50;5.30;;;;;;;3.60;68.26;100326.19;226454;1272;22550;-80
2024/01/30 17:39:55;;;;;;;9.50;5.60;;;;;;;3.56;68.13;100323.34;226505;1271;22645;-80
2024/01/30 17:44:57;;;;;;;11.40;5.50;;;;;;;3.53;67.89;100320.76;226405;1273;23033;-80
2024/01/30 17:49:59;;;;;;;9.90;6.00;;;;;;;3.51;67.65;100316.67;226504;1271;22577;-81
2024/01/30 17:55:01;;;;;;;9.70;4.70;;;;;;;3.51;67.67;100325.77;226484;1274;22577;-81
2024/01/30 18:00:05;;;;;;;9.50;5.60;;;;;;;3.49;67.40;100329.36;226420;1274;22535;-80
2024/01/30 18:05:10;;;;;;;10.60;5.40;;;;;;;3.48;67.31;100324.89;226238;1274;23302;-80
2024/01/30 18:10:18;;;;;;;7.90;4.60;;;;;;;3.45;67.34;100324.05;226318;1274;22542;-80
2024/01/30 18:15:20;;;;;;;6.70;4.70;;;;;;;3.42;67.03;100319.77;226217;1274;22554;-80
2024/01/30 18:20:22;;;;;;;6.60;4.20;;;;;;;3.38;67.27;100320.91;226261;1274;22556;-79
2024/01/30 18:25:24;;;;;;;9.20;5.40;;;;;;;3.35;67.11;100317.83;226547;1271;23454;-81
2024/01/30 18:30:26;;;;;;;7.70;5.00;;;;;;;3.30;67.14;100314.98;226484;1258;22556;-80
2024/01/30 18:35:28;;;;;;;7.10;4.50;;;;;;;3.28;66.87;100315.83;226458;1271;22564;-80
2024/01/30 18:40:30;;;;;;;5.50;3.80;;;;;;;3.26;66.82;100310.24;226528;1272;22551;-79
2024/01/30 18:45:32;;;;;;;6.30;4.20;;;;;;;3.26;66.80;100314.45;226492;1272;22561;-80
2024/01/30 18:50:34;;;;;;;7.70;4.00;;;;;;;3.26;66.69;100312.49;226521;1272;22549;-80
2024/01/30 18:55:37;;;;;;;6.50;4.10;;;;;;;3.24;66.68;100318.94;226298;1274;22543;-80
2024/01/30 19:00:41;;;;;;;7.40;3.90;;;;;;;3.23;66.69;100322.84;226018;1274;22604;-80
2024/01/30 19:05:46;;;;;;;6.30;4.50;;;;;;;3.18;66.61;100329.36;226387;1274;22527;-79
2024/01/30 19:10:53;;;;;;;5.90;3.90;;;;;;;3.14;66.66;100330.35;226270;1274;22546;-81
2024/01/30 19:16:05;;;;;;;6.90;4.40;;;;;;;3.09;66.61;100324.99;225821;1278;22556;-79
2024/01/30 19:21:09;;;;;;;6.40;3.30;;;;;;;3.05;66.76;100324.15;225772;1262;22566;-81
2024/01/30 19:26:11;;;;;;;5.60;3.40;;;;;;;3.03;66.70;100321.89;225827;1276;22593;-81
2024/01/30 19:31:14;;;;;;;5.00;3.20;;;;;;;3.00;66.75;100327.48;225613;1277;22540;-80
2024/01/30 19:36:19;;;;;;;8.60;4.20;;;;;;;2.93;66.98;100331.44;225821;1275;22594;-80
2024/01/30 19:41:21;;;;;;;5.90;3.50;;;;;;;2.89;67.09;100330.51;225814;1278;22561;-81
2024/01/30 19:46:23;;;;;;;5.20;3.20;;;;;;;2.82;67.19;100332.11;225786;1278;22553;-80
2024/01/30 19:51:26;;;;;;;6.20;3.70;;;;;;;2.77;67.36;100334.89;225762;1278;22548;-81
2024/01/30 19:56:27;;;;;;;6.00;3.60;;;;;;;2.75;67.47;100329.16;225792;1277;22684;-80
2024/01/30 20:01:31;;;;;;;6.70;3.80;;;;;;;2.70;67.44;100330.87;225798;1277;22548;-81
2024/01/30 20:06:35;;;;;;;8.60;4.80;;;;;;;2.67;67.47;100331.20;225725;1277;22562;-80
2024/01/30 20:11:37;;;;;;;6.50;4.00;;;;;;;2.65;67.58;100324.79;226032;1274;24242;-81
2024/01/30 20:16:41;;;;;;;6.90;3.80;;;;;;;2.64;67.65;100327.61;226479;1274;22565;-81
2024/01/30 20:21:44;;;;;;;7.10;4.00;;;;;;;2.62;67.55;100331.73;226406;1274;22546;-80
2024/01/30 20:26:47;;;;;;;7.90;4.90;;;;;;;2.62;67.49;100327.20;226271;1274;22549;-80
2024/01/30 20:31:49;;;;;;;7.60;4.40;;;;;;;2.64;67.45;100319.30;226523;1274;22597;-80
2024/01/30 20:36:52;;;;;;;8.60;4.70;;;;;;;2.63;67.34;100307.88;226221;1274;22558;-80
2024/01/30 20:41:55;;;;;;;7.10;3.40;;;;;;;2.62;67.30;100307.75;226121;1274;196622;-80
2024/01/30 20:46:58;;;;;;;7.40;4.50;;;;;;;2.61;67.27;100300.33;226543;1271;23845;-79
2024/01/30 20:52:00;;;;;;;8.30;4.60;;;;;;;2.59;67.30;100299.03;226369;1274;22547;-81
2024/01/30 20:57:03;;;;;;;9.00;4.30;;;;;;;2.58;67.29;100293.88;226510;1272;22558;-80
2024/01/30 21:02:05;;;;;;;8.10;4.60;;;;;;;2.59;67.30;100288.60;226403;1272;22574;-80
2024/01/30 21:07:08;;;;;;;8.30;4.60;;;;;;;2.58;67.36;100285.52;226289;1274;22536;-80
2024/01/30 21:12:11;;;;;;;9.50;5.30;;;;;;;2.59;67.42;100284.61;226302;1274;22576;-80
2024/01/30 21:17:13;;;;;;;8.60;4.90;;;;;;;2.57;67.50;100283.73;226422;1274;22517;-80
2024/01/30 21:22:16;;;;;;;7.80;4.40;;;;;;;2.55;67.50;100289.58;226402;1274;22935;-80
2024/01/30 21:27:18;;;;;;;10.60;6.00;;;;;;;2.52;67.75;100284.93;226524;1272;22591;-81
2024/01/30 21:32:20;;;;;;;9.20;5.50;;;;;;;2.50;67.80;100290.42;226252;1251;22553;-80
2024/01/30 21:37:22;;;;;;;11.10;6.00;;;;;;;2.49;67.91;100294.65;226370;1274;22682;-79
2024/01/30 21:42:25;;;;;;;8.70;5.30;;;;;;;2.47;68.01;100295.66;226433;1274;22915;-80
2024/01/30 21:47:27;;;;;;;7.80;5.00;;;;;;;2.47;68.17;100294.60;226609;1271;22608;-80
2024/01/30 21:52:29;;;;;;;7.30;4.30;;;;;;;2.47;68.12;100298.08;226246;1274;22719;-80
2024/01/30 21:57:31;;;;;;;10.30;5.90;;;;;;;2.46;68.09;100301.08;226498;1274;22576;-80
2024/01/30 22:02:34;;;;;;;8.90;5.80;;;;;;;2.46;68.34;100304.94;226476;1273;22934;-79
2024/01/30 22:07:40;;;;;;;8.60;5.30;;;;;;;2.43;68.24;100311.54;226464;1274;25348;-80
2024/01/30 22:12:42;;;;;;;8.70;6.40;;;;;;;2.41;68.45;100320.38;226456;1273;22553;-79
2024/01/30 22:17:44;;;;;;;10.80;5.80;;;;;;;2.38;68.67;100318.15;226188;1274;24291;-80
2024/01/30 22:22:46;;;;;;;10.70;6.20;;;;;;;2.37;68.61;100322.56;226449;1274;22625;-80
2024/01/30 22:27:48;;;;;;;8.60;5.30;;;;;;;2.36;68.84;100317.09;226381;1274;22582;-81
2024/01/30 22:32:50;;;;;;;9.10;5.40;;;;;;;2.35;69.05;100313.80;226455;1274;22545;-80
2024/01/30 22:37:52;;;;;;;9.20;5.60;;;;;;;2.36;69.10;100320.22;226397;1268;22577;-80
2024/01/30 22:42:54;;;;;;;8.50;5.00;;;;;;;2.36;69.17;100321.27;226503;1273;22549;-79
2024/01/30 22:47:56;;;;;;;9.20;5.70;;;;;;;2.34;69.46;100324.17;226461;1274;25502;-80
2024/01/30 22:52:58;;;;;;;9.10;5.70;;;;;;;2.31;69.57;100324.68;226564;1271;22550;-79
2024/01/30 22:58:00;;;;;;;10.10;6.20;;;;;;;2.30;69.83;100315.02;226478;1273;22569;-80
2024/01/30 23:03:02;;;;;;;9.50;6.20;;;;;;;2.29;69.93;100310.41;226426;1274;22551;-80
2024/01/30 23:08:06;;;;;;;10.50;6.70;;;;;;;2.29;70.14;100313.15;226385;1274;24452;-80